Details From KBAD - Barksdale Afb
To KBPT - Southeast Texas Rgnl
Flight Number -
Tags Decoded
Created
Modified
Stats Distance 162 nm / 300 km
Max Altitude 0 ft / 0 m
Waypoints 5
Social Downloads 1
Likes 0
Share VATSIM

Download

Looking for another format? Having issues loading an existing format? Contact us
Advertisement - Login to hide

Notes

Decoded

Route

KBAD COVEX 4TE8 KBMT KBPT

ID Type Via Altitude Latitude Longitude Leg Dist Tot Dist Heading (true) Name
O KBAD APT - 0 ft / 0 m 32.51613˚ -93.67175˚ - 0 nm - -
COVEX FIX - 0 ft / 0 m 31.90331˚ -93.73875˚ 36 nm 36 nm 185° / 185° -
4TE8 APT - 0 ft / 0 m 30.32839˚ -94.07783˚ 96 nm 133 nm 191° / 190° -
KBMT APT - 0 ft / 0 m 30.07259˚ -94.21439˚ 16 nm 150 nm 205° / 205° BEAUMONT MUNI
O KBPT APT - 0 ft / 0 m 29.95799˚ -94.02536˚ 12 nm 162 nm 125° / 125° -

Altitude Profile

Advertisement - Login to hide

Weather


0- 5 10 15 20 25 30 35+ Temperature / ° C

Clouds and Precipitation
Forecast for 2018-05-27 12:00 UTC. Updated an hour ago

Ground ~20,000 ft ~40,000 ft Winds

KBAD

Details ICAO KBAD (BAD)
Name BARKSDALE AFB
Region United States
Timezone America/Chicago (UTC-5.0)
Stats Elevation 166 ft / 51 m (AMSL)
Location 32.501946° -93.662635°
Runways 1
Magnetic Variation 1.278° E

METAR

KBAD 271156Z AUTO 11004KT 10SM BKN055 21/21 A2984 RMK AO2 SLP106 T02090209 10221 20203 53010

Decode

TAF

Not found

Departure Runways

ID Width Length Bearing (true) Bearing (mag) Surface Threshold Offset Overrun Length
15 300 ft / 91 m 11,788 ft / 3,593 m 151.54° 150.26° Asphalt 0 ft / 0 m 1,000 ft / 305 m
33 300 ft / 91 m 11,788 ft / 3,593 m 331.54° 330.26° Asphalt 0 ft / 0 m 1,000 ft / 305 m

KBPT

Details ICAO KBPT (BPT)
Name SOUTHEAST TEXAS RGNL
Region United States
Timezone America/Chicago (UTC-5.0)
Stats Elevation 15 ft / 5 m (AMSL)
Location 29.950881° -94.021036°
Runways 2
Magnetic Variation 1.615° E

METAR

KBPT 271155Z 00000KT 3SM BR CLR 22/22 A2981 RMK AO2 T02220217

Decode

TAF

KBPT 271130Z 2712/2812 VRB03KT P6SM SKC FM271600 35005KT P6SM VCTS SCT035 BKN050CB FM280100 VRB03KT P6SM SKC

Decode

Destination Runways

ID Width Length Bearing (true) Bearing (mag) Surface Threshold Offset Overrun Length
12 151 ft / 46 m 6,737 ft / 2,054 m 121.04° 119.42° Concrete 0 ft / 0 m 0 ft / 0 m
16 151 ft / 46 m 5,088 ft / 1,551 m 165.99° 164.37° Asphalt 0 ft / 0 m 0 ft / 0 m
30 151 ft / 46 m 6,737 ft / 2,054 m 301.04° 299.42° Concrete 0 ft / 0 m 0 ft / 0 m
34 151 ft / 46 m 5,088 ft / 1,551 m 345.99° 344.37° Asphalt 0 ft / 0 m 0 ft / 0 m

Approach Navaids

Runway Type Ident Frequency Range Bearing (true) Bearing (mag) Slope Elevation
12 Localiser IBPT 110.15 MHz 18 nm / 33 km 121.07° 119.46° - 5 ft / 2 m (AMSL)
12 Glidescope IBPT 110.15 MHz 10 nm / 19 km 121.04° 119.42° 3.00° 12 ft / 4 m (AMSL)
12 DME IBPT 110.15 MHz 18 nm / 33 km - - - 19 ft / 6 m (AMSL)